Time;durP1;ratioP1;P1;durP2;ratioP2;P2;SDS_P1;SDS_P2;PMS_P1;PMS_P2;Temp;Humidity;BMP_temperature;BMP_pressure;BME280_temperature;BME280_humidity;BME280_pressure;Samples;Min_cycle;Max_cycle;Signal;HPM_P1;HPM_P2
2022/12/19 00:00:32;;;;;;;48.97;34.58;;;;;;;-2.93;100.00;96647.78;5097502;28;24437;-70
2022/12/19 00:02:59;;;;;;;47.15;35.67;;;;;;;-2.96;100.00;96646.09;5105769;28;24441;-70
2022/12/19 00:05:25;;;;;;;47.10;35.38;;;;;;;-2.89;100.00;96641.03;5101534;28;25009;-71
2022/12/19 00:07:53;;;;;;;47.85;35.33;;;;;;;-2.92;100.00;96639.34;5104808;28;24426;-70
2022/12/19 00:10:20;;;;;;;48.33;33.80;;;;;;;-2.85;100.00;96645.31;5098477;28;24456;-70
2022/12/19 00:12:46;;;;;;;49.35;33.67;;;;;;;-2.87;100.00;96640.22;5103076;28;24445;-70
2022/12/19 00:15:13;;;;;;;45.15;32.85;;;;;;;-2.86;100.00;96629.22;5096836;28;24990;-70
2022/12/19 00:17:39;;;;;;;48.60;35.38;;;;;;;-2.88;100.00;96630.91;5103095;27;24974;-70
2022/12/19 00:20:07;;;;;;;43.60;33.20;;;;;;;-2.83;100.00;96633.47;5100231;28;24482;-71
2022/12/19 00:22:33;;;;;;;41.13;31.33;;;;;;;-2.82;100.00;96637.69;5097098;28;24559;-70
2022/12/19 00:25:01;;;;;;;44.50;30.80;;;;;;;-2.83;100.00;96630.94;5097876;28;24444;-70
2022/12/19 00:27:27;;;;;;;43.63;31.42;;;;;;;-2.80;100.00;96630.94;5107726;28;24440;-70
2022/12/19 00:29:54;;;;;;;38.72;29.95;;;;;;;-2.80;100.00;96628.41;5100567;28;24441;-71
2022/12/19 00:32:20;;;;;;;44.72;31.65;;;;;;;-2.84;100.00;96627.56;5096712;28;24440;-71
2022/12/19 00:34:47;;;;;;;41.20;30.27;;;;;;;-2.80;100.00;96623.34;5103972;28;24430;-70
2022/12/19 00:37:13;;;;;;;37.38;28.23;;;;;;;-2.82;100.00;96615.72;5107541;28;24815;-71
2022/12/19 00:39:40;;;;;;;34.58;27.98;;;;;;;-2.79;100.00;96615.72;5103481;28;24440;-70
2022/12/19 00:42:08;;;;;;;40.35;29.60;;;;;;;-2.81;100.00;96609.81;5102193;27;24434;-71
2022/12/19 00:44:34;;;;;;;40.95;30.50;;;;;;;-2.81;100.00;96614.91;5092940;28;24442;-70
2022/12/19 00:47:01;;;;;;;40.38;30.70;;;;;;;-2.89;100.00;96614.03;5102997;28;25022;-71
2022/12/19 00:49:27;;;;;;;43.50;31.57;;;;;;;-2.87;100.00;96617.41;5103490;28;24434;-70
2022/12/19 00:51:56;;;;;;;38.10;29.05;;;;;;;-2.81;100.00;96609.81;5099976;28;24442;-70
2022/12/19 00:54:22;;;;;;;37.50;29.25;;;;;;;-2.79;100.00;96612.34;5094219;28;24494;-70
2022/12/19 00:56:49;;;;;;;38.70;30.45;;;;;;;-2.87;100.00;96619.94;5104697;28;24460;-71
2022/12/19 00:59:17;;;;;;;44.05;29.75;;;;;;;-2.92;100.00;96619.09;5102510;28;24437;-70
2022/12/19 01:01:43;;;;;;;40.42;29.92;;;;;;;-2.94;100.00;96608.06;5098527;28;25317;-70
2022/12/19 01:04:13;;;;;;;43.15;31.13;;;;;;;-2.93;100.00;96617.38;5091346;28;24430;-70
2022/12/19 01:06:40;;;;;;;41.28;30.80;;;;;;;-2.92;100.00;96608.94;5102731;28;24483;-70
2022/12/19 01:09:07;;;;;;;40.17;29.90;;;;;;;-2.90;100.00;96607.25;5094433;28;24806;-70
2022/12/19 01:14:18;;;;;;;40.28;29.48;;;;;;;-2.85;100.00;96599.69;5084937;28;24460;-71
2022/12/19 01:16:45;;;;;;;41.30;31.25;;;;;;;-2.85;100.00;96613.19;5098143;28;24449;-70
2022/12/19 01:19:11;;;;;;;39.28;28.92;;;;;;;-2.84;100.00;96609.81;5102576;28;24441;-71
2022/12/19 01:21:38;;;;;;;39.20;29.83;;;;;;;-2.75;100.00;96606.44;5097075;28;24430;-70
2022/12/19 01:24:06;;;;;;;35.95;29.52;;;;;;;-2.76;100.00;96604.75;5083060;28;24441;-70
2022/12/19 01:26:32;;;;;;;43.03;31.98;;;;;;;-2.75;100.00;96612.34;5097533;28;24433;-70
2022/12/19 01:28:59;;;;;;;47.45;31.52;;;;;;;-2.74;100.00;96603.94;5104361;28;24430;-71
2022/12/19 01:31:27;;;;;;;43.83;31.57;;;;;;;-2.78;100.00;96606.44;5099131;28;24524;-70
2022/12/19 01:33:53;;;;;;;41.92;31.70;;;;;;;-2.74;100.00;96614.06;5107635;28;24456;-70
2022/12/19 01:36:20;;;;;;;44.20;31.27;;;;;;;-2.76;100.00;96603.06;5109090;28;24457;-70
2022/12/19 01:38:46;;;;;;;38.92;30.65;;;;;;;-2.74;100.00;96608.16;5107289;28;24476;-71
2022/12/19 01:41:13;;;;;;;43.83;31.15;;;;;;;-2.76;100.00;96595.47;5101373;28;24438;-71
2022/12/19 01:43:57;;;;;;;39.70;29.75;;;;;;;-2.72;100.00;96589.53;5106749;28;24460;-70
2022/12/19 01:46:29;;;;;;;41.55;31.58;;;;;;;-2.74;100.00;96596.31;5099036;28;24436;-70
2022/12/19 01:48:56;;;;;;;44.97;31.42;;;;;;;-2.67;100.00;96592.09;5095415;28;24441;-70
2022/12/19 01:51:26;;;;;;;42.15;31.08;;;;;;;-2.64;100.00;96578.56;5102442;28;24441;-70
2022/12/19 01:53:58;;;;;;;41.95;30.20;;;;;;;-2.60;100.00;96559.97;5104232;28;25010;-70
2022/12/19 01:56:29;;;;;;;39.42;30.83;;;;;;;-2.63;100.00;96557.44;5091752;28;24473;-71
2022/12/19 01:58:57;;;;;;;38.80;30.60;;;;;;;-2.64;100.00;96563.34;5103125;28;24444;-70
2022/12/19 02:01:25;;;;;;;45.15;29.20;;;;;;;-2.63;100.00;96576.06;5101416;28;24444;-69
2022/12/19 02:03:54;;;;;;;39.08;29.63;;;;;;;-2.57;100.00;96560.00;5094794;28;24843;-70
2022/12/19 02:06:22;;;;;;;40.08;29.05;;;;;;;-2.58;100.00;96561.69;5094751;28;24430;-71
2022/12/19 02:08:49;;;;;;;43.08;30.20;;;;;;;-2.57;100.00;96580.28;5099595;28;24440;-70
2022/12/19 02:11:15;;;;;;;38.28;31.02;;;;;;;-2.60;100.00;96570.97;5096180;28;24430;-70
2022/12/19 02:13:43;;;;;;;42.38;31.05;;;;;;;-2.57;100.00;96560.00;5094073;28;24438;-70
2022/12/19 02:16:18;;;;;;;46.03;31.40;;;;;;;-2.55;100.00;96553.25;5099712;28;24481;-71
2022/12/19 02:18:51;;;;;;;38.22;29.23;;;;;;;-2.56;100.00;96557.47;5099876;28;24440;-70
2022/12/19 02:21:29;;;;;;;34.90;28.73;;;;;;;-2.51;100.00;96555.78;5102077;28;24437;-70
2022/12/19 02:24:38;;;;;;;38.97;30.00;;;;;;;-2.43;100.00;96555.78;5104277;28;24440;-70
2022/12/19 02:27:33;;;;;;;39.45;29.48;;;;;;;-2.46;100.00;96566.75;5089737;28;24426;-70
2022/12/19 02:30:09;;;;;;;47.60;31.02;;;;;;;-2.39;100.00;96569.31;5094556;28;24430;-70
2022/12/19 02:32:48;;;;;;;37.47;29.90;;;;;;;-2.44;100.00;96564.25;5096392;28;25017;-71
2022/12/19 02:35:25;;;;;;;46.70;30.35;;;;;;;-2.42;100.00;96561.69;5090611;28;24430;-70
2022/12/19 02:37:59;;;;;;;36.33;29.47;;;;;;;-2.42;100.00;96565.06;5098132;28;25010;-70
2022/12/19 02:40:30;;;;;;;36.60;30.33;;;;;;;-2.44;100.00;96569.31;5099157;28;24464;-70
2022/12/19 02:42:58;;;;;;;41.47;30.30;;;;;;;-2.40;100.00;96567.63;5099826;28;24972;-71
2022/12/19 02:45:29;;;;;;;35.43;29.27;;;;;;;-2.42;100.00;96569.31;5105232;28;24430;-70
2022/12/19 02:47:58;;;;;;;40.00;29.55;;;;;;;-2.38;100.00;96574.38;5092231;28;24430;-70
2022/12/19 02:50:25;;;;;;;40.78;29.23;;;;;;;-2.38;100.00;96571.84;5107027;28;24430;-71
2022/12/19 02:52:51;;;;;;;41.28;30.45;;;;;;;-2.39;100.00;96565.06;5098428;28;24805;-71
2022/12/19 02:55:22;;;;;;;42.70;28.10;;;;;;;-2.38;100.00;96569.28;5096899;28;24865;-70
2022/12/19 02:58:04;;;;;;;39.13;30.40;;;;;;;-2.37;100.00;96570.13;5102061;28;24995;-71
2022/12/19 03:00:40;;;;;;;36.88;28.60;;;;;;;-2.35;100.00;96571.84;5100649;28;24471;-71
2022/12/19 03:03:16;;;;;;;41.45;28.50;;;;;;;-2.32;100.00;96573.53;5090124;28;24445;-70
2022/12/19 03:05:50;;;;;;;33.65;26.95;;;;;;;-2.30;100.00;96584.53;5099561;28;24444;-70
2022/12/19 03:08:24;;;;;;;32.92;26.50;;;;;;;-2.27;100.00;96584.53;5108423;28;25026;-71
2022/12/19 03:10:57;;;;;;;46.03;28.85;;;;;;;-2.31;100.00;96593.81;5106907;28;24441;-70
2022/12/19 03:13:29;;;;;;;38.60;28.97;;;;;;;-2.29;100.00;96587.06;5103838;28;25021;-70
2022/12/19 03:15:57;;;;;;;37.80;29.48;;;;;;;-2.31;100.00;96595.53;5099163;28;25086;-70
2022/12/19 03:18:25;;;;;;;38.33;29.60;;;;;;;-2.30;100.00;96585.41;5104364;28;24438;-70
2022/12/19 03:20:59;;;;;;;35.80;29.23;;;;;;;-2.26;100.00;96582.00;5102228;27;24439;-70
2022/12/19 03:23:27;;;;;;;38.00;27.98;;;;;;;-2.20;100.00;96583.69;5104420;28;24437;-70
2022/12/19 03:25:57;;;;;;;39.30;29.52;;;;;;;-2.17;100.00;96591.31;5102402;28;24434;-70
2022/12/19 03:28:27;;;;;;;39.43;29.23;;;;;;;-2.12;100.00;96583.69;5107224;28;25164;-70
2022/12/19 03:30:55;;;;;;;37.30;28.27;;;;;;;-2.10;100.00;96587.09;5101907;27;24462;-70
2022/12/19 03:33:24;;;;;;;38.30;28.80;;;;;;;-2.13;100.00;96593.00;5104384;28;24525;-71
2022/12/19 03:35:54;;;;;;;40.65;29.42;;;;;;;-2.11;100.00;96582.81;5096189;28;24480;-70
2022/12/19 03:38:22;;;;;;;38.15;27.80;;;;;;;-2.09;100.00;96586.22;5103673;28;24449;-70
2022/12/19 03:40:49;;;;;;;37.35;27.98;;;;;;;-2.06;100.00;96589.59;5100600;28;24438;-70
2022/12/19 03:43:16;;;;;;;38.75;27.02;;;;;;;-2.05;100.00;96595.53;5101387;28;25009;-71
2022/12/19 03:45:49;;;;;;;33.30;25.90;;;;;;;-2.03;100.00;96588.78;5098530;27;24822;-70
2022/12/19 03:48:21;;;;;;;39.50;27.70;;;;;;;-2.04;100.00;96582.84;5109523;28;25013;-71
2022/12/19 03:50:59;;;;;;;34.20;27.10;;;;;;;-2.02;100.00;96582.84;5099685;28;24441;-71
2022/12/19 03:53:36;;;;;;;36.25;27.88;;;;;;;-2.04;100.00;96577.78;5095344;28;24438;-70
2022/12/19 03:56:11;;;;;;;40.80;28.70;;;;;;;-2.04;100.00;96584.53;5094944;28;24434;-70
2022/12/19 03:58:43;;;;;;;38.20;28.05;;;;;;;-2.04;100.00;96576.91;5092798;28;24464;-72
2022/12/19 04:01:09;;;;;;;34.35;26.83;;;;;;;-2.01;100.00;96575.22;5090470;28;24437;-72
2022/12/19 04:03:36;;;;;;;36.58;27.27;;;;;;;-1.97;100.00;96579.44;5101318;28;24446;-73
2022/12/19 04:06:06;;;;;;;34.93;28.30;;;;;;;-1.95;100.00;96584.53;5086618;28;25026;-73
2022/12/19 04:08:33;;;;;;;38.17;27.83;;;;;;;-1.92;100.00;96573.53;5092884;28;24809;-73
2022/12/19 04:11:07;;;;;;;35.00;27.40;;;;;;;-1.92;100.00;96576.91;5097079;28;24486;-72
2022/12/19 04:13:37;;;;;;;36.58;27.73;;;;;;;-1.94;100.00;96583.69;5091315;28;24999;-72
2022/12/19 04:16:12;;;;;;;43.55;28.52;;;;;;;-1.90;100.00;96587.06;5084610;28;24449;-72
2022/12/19 04:18:44;;;;;;;40.60;29.17;;;;;;;-1.90;100.00;96577.75;5092278;28;24438;-72
2022/12/19 04:21:18;;;;;;;35.28;27.00;;;;;;;-1.92;100.00;96589.59;5085118;28;24441;-71
2022/12/19 04:23:50;;;;;;;41.35;29.10;;;;;;;-1.91;100.00;96587.91;5102260;28;24441;-71
2022/12/19 04:26:20;;;;;;;49.17;34.05;;;;;;;-1.88;100.00;96580.28;5103026;28;25001;-72
2022/12/19 04:28:50;;;;;;;46.38;31.60;;;;;;;-1.87;100.00;96587.06;5087011;28;25011;-73
2022/12/19 04:31:19;;;;;;;43.60;29.55;;;;;;;-1.87;100.00;96582.81;5094202;28;24429;-71
2022/12/19 04:33:46;;;;;;;39.92;28.35;;;;;;;-1.85;100.00;96585.38;5097610;28;24441;-72
2022/12/19 04:36:14;;;;;;;38.83;26.90;;;;;;;-1.84;100.00;96590.44;5094476;28;24433;-72
2022/12/19 04:38:40;;;;;;;59.25;36.88;;;;;;;-1.85;100.00;96593.84;5100916;28;24453;-72
2022/12/19 04:41:07;;;;;;;61.20;36.53;;;;;;;-1.81;100.00;96597.22;5100089;28;24804;-72
2022/12/19 04:43:34;;;;;;;71.00;40.67;;;;;;;-1.80;100.00;96594.66;5101397;28;24449;-72
2022/12/19 04:46:00;;;;;;;75.85;47.65;;;;;;;-1.75;100.00;96592.09;5092439;28;24441;-72
2022/12/19 04:48:27;;;;;;;59.50;39.35;;;;;;;-1.71;100.00;96591.25;5097535;28;24430;-72
2022/12/19 04:50:54;;;;;;;66.15;39.67;;;;;;;-1.70;100.00;96587.88;5101823;28;24824;-71
2022/12/19 04:53:22;;;;;;;62.28;38.22;;;;;;;-1.67;100.00;96587.00;5103123;28;24445;-72
2022/12/19 04:55:49;;;;;;;46.50;33.58;;;;;;;-1.66;100.00;96594.66;5095444;28;24438;-72
2022/12/19 04:58:16;;;;;;;49.55;31.95;;;;;;;-1.65;100.00;96585.34;5107202;28;24449;-72
2022/12/19 05:00:43;;;;;;;50.03;33.75;;;;;;;-1.61;100.00;96587.00;5101888;28;25014;-72
2022/12/19 05:03:09;;;;;;;36.47;28.65;;;;;;;-1.61;100.00;96590.41;5095653;28;24430;-72
2022/12/19 05:05:36;;;;;;;34.45;26.85;;;;;;;-1.61;100.00;96585.31;5101585;28;24513;-72
2022/12/19 05:08:02;;;;;;;31.65;25.13;;;;;;;-1.60;100.00;96584.47;5104219;28;24442;-72
2022/12/19 05:10:31;;;;;;;32.42;23.83;;;;;;;-1.52;100.00;96585.31;5103493;28;24983;-72
2022/12/19 05:12:57;;;;;;;33.20;24.73;;;;;;;-1.51;100.00;96578.53;5108124;28;24434;-73
2022/12/19 05:15:23;;;;;;;34.00;26.25;;;;;;;-1.53;100.00;96580.22;5093431;28;24448;-73
2022/12/19 05:17:50;;;;;;;33.40;25.40;;;;;;;-1.53;100.00;96578.50;5104122;28;24458;-73
2022/12/19 05:20:17;;;;;;;33.35;24.55;;;;;;;-1.52;100.00;96580.22;5099803;28;24807;-73
2022/12/19 05:22:43;;;;;;;31.27;24.42;;;;;;;-1.49;100.00;96576.81;5098348;28;24449;-73
2022/12/19 05:25:10;;;;;;;31.77;24.60;;;;;;;-1.47;100.00;96573.44;5084021;28;24983;-72
2022/12/19 05:27:37;;;;;;;34.97;25.45;;;;;;;-1.49;100.00;96571.72;5097459;28;24537;-72
2022/12/19 05:30:05;;;;;;;39.40;27.88;;;;;;;-1.45;100.00;96583.56;5087846;28;24435;-73
2022/12/19 05:32:33;;;;;;;37.72;27.13;;;;;;;-1.48;100.00;96579.38;5096290;28;24429;-72
2022/12/19 05:35:00;;;;;;;34.78;26.50;;;;;;;-1.48;100.00;96571.75;5098137;28;24503;-72
2022/12/19 05:37:26;;;;;;;40.58;26.08;;;;;;;-1.45;100.00;96568.34;5104080;28;25022;-72
2022/12/19 05:39:53;;;;;;;38.22;26.40;;;;;;;-1.44;100.00;96569.19;5103259;28;24430;-71
2022/12/19 05:42:19;;;;;;;29.17;23.50;;;;;;;-1.44;100.00;96570.03;5097550;28;24513;-72
2022/12/19 05:44:47;;;;;;;31.73;25.45;;;;;;;-1.43;100.00;96569.19;5089771;28;24438;-72
2022/12/19 05:47:14;;;;;;;37.72;28.42;;;;;;;-1.41;100.00;96570.00;5095254;28;24436;-72
2022/12/19 05:49:40;;;;;;;31.48;25.65;;;;;;;-1.41;100.00;96575.09;5096836;28;24792;-72
2022/12/19 05:52:07;;;;;;;36.63;25.85;;;;;;;-1.42;100.00;96575.09;5108931;28;24993;-72
2022/12/19 05:54:33;;;;;;;29.83;23.52;;;;;;;-1.43;100.00;96566.66;5102354;27;24438;-71
2022/12/19 05:57:00;;;;;;;31.00;23.33;;;;;;;-1.42;100.00;96575.94;5101893;28;24983;-72
2022/12/19 05:59:26;;;;;;;33.75;24.33;;;;;;;-1.41;100.00;96581.88;5101884;28;24422;-72
2022/12/19 06:01:54;;;;;;;29.75;22.50;;;;;;;-1.38;100.00;96580.16;5099812;28;24950;-72
2022/12/19 06:04:21;;;;;;;30.50;23.75;;;;;;;-1.34;100.00;96575.91;5107205;28;24800;-72
2022/12/19 06:06:47;;;;;;;33.92;25.70;;;;;;;-1.33;100.00;96570.84;5095930;28;24424;-72
2022/12/19 06:09:14;;;;;;;36.08;26.55;;;;;;;-1.28;100.00;96568.28;5101707;28;25009;-73
2022/12/19 06:11:40;;;;;;;37.22;26.75;;;;;;;-1.25;100.00;96566.59;5091075;28;24442;-72
2022/12/19 06:14:07;;;;;;;42.60;26.37;;;;;;;-1.20;100.00;96581.81;5084278;28;24797;-73
2022/12/19 06:16:33;;;;;;;45.22;30.00;;;;;;;-1.16;100.00;96572.47;5100134;28;24440;-72
2022/12/19 06:19:01;;;;;;;63.38;34.83;;;;;;;-1.17;100.00;96575.88;5095405;28;24469;-72
2022/12/19 06:21:28;;;;;;;54.35;35.45;;;;;;;-1.15;100.00;96574.16;5100991;28;24489;-73
2022/12/19 06:23:54;;;;;;;41.47;30.80;;;;;;;-1.12;100.00;96569.91;5106308;28;24811;-73
2022/12/19 06:26:22;;;;;;;34.60;25.58;;;;;;;-1.10;100.00;96575.00;5085124;28;24796;-73
2022/12/19 06:28:50;;;;;;;38.95;26.58;;;;;;;-1.09;100.00;96566.50;5100752;28;24483;-72
2022/12/19 06:31:18;;;;;;;32.03;25.85;;;;;;;-1.04;100.00;96568.19;5104892;28;24463;-72
2022/12/19 06:33:44;;;;;;;34.75;24.80;;;;;;;-1.04;100.00;96573.28;5106285;28;24511;-72
2022/12/19 06:36:15;;;;;;;34.35;25.73;;;;;;;-0.99;100.00;96578.34;5105290;28;24432;-73
2022/12/19 06:38:42;;;;;;;36.45;24.52;;;;;;;-0.96;100.00;96568.16;5099256;28;24568;-73
2022/12/19 06:43:57;;;;;;;35.78;25.52;;;;;;;-0.91;100.00;96576.59;5097735;28;24446;-71
2022/12/19 06:46:23;;;;;;;33.97;25.38;;;;;;;-0.90;100.00;96579.97;5090903;28;24422;-73
2022/12/19 06:48:51;;;;;;;31.80;24.48;;;;;;;-0.90;100.00;96582.53;5102978;28;24429;-73
2022/12/19 06:51:19;;;;;;;37.22;26.05;;;;;;;-0.92;100.00;96586.78;5097436;28;24435;-73
2022/12/19 06:53:46;;;;;;;40.50;24.92;;;;;;;-0.92;100.00;96580.00;5093922;28;25033;-73
2022/12/19 06:56:14;;;;;;;32.33;24.58;;;;;;;-0.91;100.00;96571.50;5092932;28;24437;-73
2022/12/19 06:58:41;;;;;;;36.40;24.60;;;;;;;-0.85;100.00;96574.03;5085502;28;24446;-73
2022/12/19 07:01:07;;;;;;;31.13;24.20;;;;;;;-0.82;100.00;96565.53;5091986;28;24441;-72
2022/12/19 07:03:38;;;;;;;36.47;24.48;;;;;;;-0.78;100.00;96562.09;5097945;28;24430;-72
2022/12/19 07:06:05;;;;;;;31.77;24.60;;;;;;;-0.73;100.00;96555.31;5093645;28;24438;-72
2022/12/19 07:08:33;;;;;;;32.58;24.65;;;;;;;-0.68;100.00;96565.44;5094781;28;24437;-72
2022/12/19 07:11:00;;;;;;;31.13;23.92;;;;;;;-0.60;100.00;96563.69;5092176;28;24436;-72
2022/12/19 07:13:26;;;;;;;33.22;23.40;;;;;;;-0.60;100.00;96559.44;5098850;28;24437;-73
2022/12/19 07:15:57;;;;;;;27.90;23.08;;;;;;;-0.60;100.00;96563.69;5084078;28;25043;-72
2022/12/19 07:18:23;;;;;;;29.77;22.95;;;;;;;-0.59;100.00;96567.94;5096723;28;24457;-72
2022/12/19 07:20:50;;;;;;;32.40;23.83;;;;;;;-0.64;100.00;96569.66;5092132;28;24430;-72
2022/12/19 07:23:20;;;;;;;36.40;25.58;;;;;;;-0.66;100.00;96569.69;5091720;28;24999;-71
2022/12/19 07:25:48;;;;;;;33.83;23.85;;;;;;;-0.67;100.00;96574.75;5094390;28;24445;-72
2022/12/19 07:28:15;;;;;;;27.00;23.25;;;;;;;-0.62;100.00;96580.69;5103979;28;24426;-73
2022/12/19 07:30:41;;;;;;;29.35;23.83;;;;;;;-0.67;100.00;96577.31;5094965;28;24434;-73
2022/12/19 07:33:08;;;;;;;29.08;22.58;;;;;;;-0.70;100.00;96580.72;5083184;28;24438;-71
2022/12/19 07:35:35;;;;;;;31.77;23.98;;;;;;;-0.67;100.00;96582.41;5096999;28;24519;-73
2022/12/19 07:38:02;;;;;;;31.10;24.63;;;;;;;-0.69;100.00;96569.69;5081631;28;25023;-73
2022/12/19 07:40:29;;;;;;;30.05;22.60;;;;;;;-0.69;100.00;96573.94;5086515;28;24433;-73
2022/12/19 07:42:59;;;;;;;30.48;23.17;;;;;;;-0.70;100.00;96579.88;5085659;28;24442;-72
2022/12/19 07:45:25;;;;;;;31.77;23.73;;;;;;;-0.70;100.00;96580.72;5085524;28;24437;-73
2022/12/19 07:47:52;;;;;;;32.17;24.35;;;;;;;-0.68;100.00;96579.00;5098215;28;24429;-73
2022/12/19 07:50:18;;;;;;;30.95;22.40;;;;;;;-0.66;100.00;96592.56;5092326;28;24469;-73
2022/12/19 07:52:45;;;;;;;38.10;25.20;;;;;;;-0.65;100.00;96590.88;5098507;28;24434;-71
2022/12/19 07:55:12;;;;;;;28.47;23.70;;;;;;;-0.66;100.00;96590.03;5098529;28;24784;-72
2022/12/19 07:57:38;;;;;;;32.75;23.70;;;;;;;-0.68;100.00;96578.16;5100076;28;24441;-72
2022/12/19 08:00:08;;;;;;;28.38;22.70;;;;;;;-0.66;100.00;96592.56;5096963;28;24979;-72
2022/12/19 08:02:35;;;;;;;27.63;20.48;;;;;;;-0.68;100.00;96589.19;5089989;28;24442;-74
2022/12/19 08:05:01;;;;;;;32.10;22.42;;;;;;;-0.59;100.00;96598.47;5091181;28;24449;-72
2022/12/19 08:07:28;;;;;;;26.02;21.65;;;;;;;-0.52;100.00;96607.75;5095247;28;24588;-72
2022/12/19 08:09:55;;;;;;;26.77;21.00;;;;;;;-0.49;100.00;96607.72;5074741;28;25019;-73
2022/12/19 08:12:22;;;;;;;36.17;23.23;;;;;;;-0.49;100.00;96610.28;5077022;28;25041;-73
2022/12/19 08:14:48;;;;;;;49.88;36.83;;;;;;;-0.51;100.00;96615.38;5076639;28;24447;-73
2022/12/19 08:17:16;;;;;;;43.47;32.15;;;;;;;-0.46;100.00;96601.78;5074207;28;24431;-72
2022/12/19 08:19:43;;;;;;;33.58;26.20;;;;;;;-0.42;100.00;96594.13;5074098;28;24877;-73
2022/12/19 08:22:09;;;;;;;30.00;24.85;;;;;;;-0.29;100.00;96593.19;5080118;28;24521;-73
2022/12/19 08:24:36;;;;;;;35.53;24.67;;;;;;;-0.27;100.00;96588.91;5070894;28;24450;-70
2022/12/19 08:27:02;;;;;;;52.13;35.33;;;;;;;-0.29;100.00;96588.09;5070720;28;24828;-73
2022/12/19 08:29:29;;;;;;;57.87;38.70;;;;;;;-0.25;100.00;96584.66;5069974;28;24474;-72
2022/12/19 08:31:56;;;;;;;54.92;35.85;;;;;;;-0.22;100.00;96591.44;5071075;28;24441;-73
2022/12/19 08:34:24;;;;;;;40.08;27.73;;;;;;;-0.23;100.00;96588.91;5072572;28;24832;-72
2022/12/19 08:36:50;;;;;;;36.63;26.33;;;;;;;-0.21;100.00;96589.75;5073696;28;24446;-71
2022/12/19 08:39:17;;;;;;;34.92;24.85;;;;;;;-0.15;100.00;96588.00;5081160;28;24458;-72
2022/12/19 08:41:43;;;;;;;54.90;34.33;;;;;;;-0.08;100.00;96587.06;5076713;28;24434;-72
2022/12/19 08:44:11;;;;;;;41.33;28.03;;;;;;;-0.03;100.00;96590.44;5085962;28;24584;-72
2022/12/19 08:46:38;;;;;;;48.55;35.35;;;;;;;-0.01;100.00;96587.88;5075583;28;24449;-73
2022/12/19 08:49:04;;;;;;;42.13;30.30;;;;;;;0.03;100.00;96578.50;5071497;28;24567;-72
2022/12/19 08:51:32;;;;;;;39.58;29.77;;;;;;;-0.01;100.00;96567.50;5079604;28;24442;-72
2022/12/19 08:53:59;;;;;;;31.15;23.17;;;;;;;-0.07;100.00;96570.94;5086476;28;24968;-72
2022/12/19 08:56:25;;;;;;;30.50;23.13;;;;;;;-0.02;100.00;96564.09;5080345;28;24438;-72
2022/12/19 08:58:52;;;;;;;38.15;23.52;;;;;;;0.06;100.00;96563.19;5080603;28;24453;-72
2022/12/19 09:01:22;;;;;;;36.80;27.10;;;;;;;0.04;100.00;96565.78;5077095;28;24513;-72
2022/12/19 09:03:49;;;;;;;30.50;23.53;;;;;;;0.10;100.00;96563.16;5085865;28;24533;-73
2022/12/19 09:06:16;;;;;;;27.25;21.98;;;;;;;0.10;100.00;96570.78;5056534;28;24453;-71
2022/12/19 09:08:44;;;;;;;27.65;21.02;;;;;;;0.15;100.00;96563.97;5072257;28;24442;-72
2022/12/19 09:11:13;;;;;;;41.47;26.48;;;;;;;0.18;100.00;96561.38;5069916;28;24439;-72
2022/12/19 09:13:41;;;;;;;58.00;32.83;;;;;;;0.26;100.00;96578.28;5068164;28;24533;-73
2022/12/19 09:16:11;;;;;;;60.17;32.75;;;;;;;0.25;100.00;96574.91;5073834;28;24437;-73
2022/12/19 09:18:38;;;;;;;43.47;25.20;;;;;;;0.29;100.00;96575.72;5079894;28;24528;-72
2022/12/19 09:21:05;;;;;;;28.00;20.00;;;;;;;0.29;100.00;96573.16;5075309;28;24492;-73
2022/12/19 09:23:31;;;;;;;23.63;18.25;;;;;;;0.34;100.00;96574.81;5083771;28;24965;-73
2022/12/19 09:26:04;;;;;;;25.08;19.10;;;;;;;0.41;100.00;96575.63;5063787;28;24466;-74
2022/12/19 09:28:31;;;;;;;28.85;18.45;;;;;;;0.47;100.00;96570.44;5082375;28;25073;-73
2022/12/19 09:30:59;;;;;;;21.83;17.25;;;;;;;0.48;100.00;96573.00;5079399;28;24428;-74
2022/12/19 09:33:25;;;;;;;22.50;17.90;;;;;;;0.49;100.00;96573.81;5074295;28;24501;-73
2022/12/19 09:35:53;;;;;;;26.95;18.63;;;;;;;0.55;100.00;96575.44;5081101;28;24453;-73
2022/12/19 09:38:20;;;;;;;24.80;18.40;;;;;;;0.62;100.00;96577.06;5081696;28;25034;-73
2022/12/19 09:41:00;;;;;;;28.15;20.15;;;;;;;0.67;100.00;96562.59;5071976;28;24793;-73
2022/12/19 09:43:44;;;;;;;23.80;17.77;;;;;;;0.71;100.00;96570.19;5070756;28;24995;-73
2022/12/19 09:46:16;;;;;;;21.02;16.80;;;;;;;0.71;100.00;96564.25;5077449;28;24449;-73
2022/12/19 09:48:45;;;;;;;21.35;17.10;;;;;;;0.73;100.00;96557.41;5079764;28;24440;-73
2022/12/19 09:51:16;;;;;;;25.58;18.10;;;;;;;0.81;100.00;96555.59;5077599;28;24438;-73
2022/12/19 09:53:55;;;;;;;22.75;16.67;;;;;;;0.89;100.00;96556.38;5080471;28;24446;-73
2022/12/19 09:56:25;;;;;;;19.77;16.60;;;;;;;0.95;100.00;96563.09;5074694;28;25027;-72
2022/12/19 09:58:58;;;;;;;26.08;19.38;;;;;;;0.94;100.00;96561.41;5066758;28;24454;-72
2022/12/19 10:01:30;;;;;;;22.77;18.87;;;;;;;0.97;100.00;96566.47;5069136;28;24526;-71
2022/12/19 10:04:03;;;;;;;23.25;19.10;;;;;;;0.99;100.00;96564.75;5063560;28;24470;-71
2022/12/19 10:06:30;;;;;;;24.53;18.67;;;;;;;0.96;100.00;96552.03;5073383;28;24453;-72
2022/12/19 10:08:56;;;;;;;33.45;25.63;;;;;;;1.02;100.00;96553.66;5075468;28;24521;-72
2022/12/19 10:11:42;;;;;;;45.58;29.38;;;;;;;1.03;100.00;96551.06;5077864;28;24801;-72
2022/12/19 10:14:23;;;;;;;22.77;18.08;;;;;;;0.97;100.00;96553.72;5065468;28;24455;-73
2022/12/19 10:17:00;;;;;;;24.08;17.38;;;;;;;0.96;100.00;96552.03;5065667;28;24794;-70
2022/12/19 10:19:38;;;;;;;21.85;17.92;;;;;;;0.93;100.00;96552.91;5065931;28;25008;-71
2022/12/19 10:22:16;;;;;;;22.92;18.65;;;;;;;0.91;100.00;96546.13;5067873;28;24976;-71
2022/12/19 10:25:11;;;;;;;24.33;18.65;;;;;;;0.92;100.00;96543.56;5071031;28;24435;-70
2022/12/19 10:27:46;;;;;;;23.65;17.63;;;;;;;0.92;100.00;96542.72;5076203;28;24500;-70
2022/12/19 10:30:17;;;;;;;24.80;19.05;;;;;;;0.89;100.00;96540.19;5068560;28;24473;-70
2022/12/19 10:33:00;;;;;;;24.83;18.37;;;;;;;0.89;100.00;96541.06;5066098;28;25063;-69
2022/12/19 10:35:32;;;;;;;23.90;18.27;;;;;;;0.93;100.00;96527.41;5072579;28;24446;-71
2022/12/19 10:38:16;;;;;;;24.45;18.10;;;;;;;0.95;100.00;96535.03;5074637;28;24442;-70
2022/12/19 10:40:48;;;;;;;25.15;16.70;;;;;;;0.97;100.00;96535.88;5077952;28;24426;-70
2022/12/19 10:43:22;;;;;;;29.67;17.65;;;;;;;0.97;100.00;96535.88;5071140;28;24450;-70
2022/12/19 10:45:53;;;;;;;22.08;18.08;;;;;;;0.99;100.00;96523.94;5070154;28;24455;-70
2022/12/19 10:48:23;;;;;;;23.90;18.02;;;;;;;1.03;100.00;96515.38;5074593;28;24527;-71
2022/12/19 10:50:50;;;;;;;25.35;18.48;;;;;;;1.07;100.00;96504.25;5072856;28;24435;-71
2022/12/19 10:53:26;;;;;;;25.60;18.17;;;;;;;1.13;100.00;96498.25;5064235;28;24431;-71
2022/12/19 10:55:53;;;;;;;22.30;18.42;;;;;;;1.18;100.00;96494.75;5077842;28;24446;-71
2022/12/19 10:58:24;;;;;;;23.27;18.55;;;;;;;1.27;100.00;96493.78;5078526;28;24488;-71
2022/12/19 11:01:23;;;;;;;25.00;18.45;;;;;;;1.36;100.00;96501.28;5061730;28;24437;-70
2022/12/19 11:03:55;;;;;;;26.55;23.33;;;;;;;1.43;100.00;96507.16;5025488;28;24432;-71
2022/12/19 11:06:43;;;;;;;22.52;19.52;;;;;;;1.55;100.00;96509.50;5066577;28;24450;-71
2022/12/19 11:09:26;;;;;;;24.80;18.95;;;;;;;1.56;100.00;96497.56;5077979;28;24449;-71
2022/12/19 11:12:02;;;;;;;26.13;18.90;;;;;;;1.56;100.00;96490.78;5072775;28;24439;-71
2022/12/19 11:14:31;;;;;;;25.42;18.75;;;;;;;1.62;100.00;96493.22;5080230;28;24445;-72
2022/12/19 11:16:59;;;;;;;27.83;20.20;;;;;;;1.58;100.00;96494.16;5075652;28;24805;-70
2022/12/19 11:19:30;;;;;;;20.63;17.20;;;;;;;1.60;100.00;96494.97;5079728;28;24828;-70
2022/12/19 11:22:00;;;;;;;20.38;17.10;;;;;;;1.63;100.00;96488.97;5076346;28;24434;-70
2022/12/19 11:24:34;;;;;;;21.02;16.60;;;;;;;1.65;100.00;96482.13;5074262;28;24430;-71
2022/12/19 11:27:00;;;;;;;21.23;16.80;;;;;;;1.69;100.00;96483.75;5063908;28;24446;-70